sensor_id;sensor_type;location;lat;lon;timestamp;pressure;altitude;pressure_sealevel;temperature
79089;BMP280;68489;50.286;9.452;2023-04-25T00:01:01;96650.41;;;7.43
79089;BMP280;68489;50.286;9.452;2023-04-25T00:03:27;96640.91;;;7.46
79089;BMP280;68489;50.286;9.452;2023-04-25T00:05:54;96644.22;;;7.37
79089;BMP280;68489;50.286;9.452;2023-04-25T00:08:21;96635.22;;;7.34
79089;BMP280;68489;50.286;9.452;2023-04-25T00:10:47;96643.88;;;7.35
79089;BMP280;68489;50.286;9.452;2023-04-25T00:13:14;96648.94;;;7.42
79089;BMP280;68489;50.286;9.452;2023-04-25T00:15:40;96640.06;;;7.49
79089;BMP280;68489;50.286;9.452;2023-04-25T00:18:06;96643.44;;;7.49
79089;BMP280;68489;50.286;9.452;2023-04-25T00:20:32;96639.00;;;7.46
79089;BMP280;68489;50.286;9.452;2023-04-25T00:22:57;96647.78;;;7.43
79089;BMP280;68489;50.286;9.452;2023-04-25T00:25:22;96650.09;;;7.41
79089;BMP280;68489;50.286;9.452;2023-04-25T00:27:48;96646.28;;;7.42
79089;BMP280;68489;50.286;9.452;2023-04-25T00:30:14;96648.63;;;7.40
79089;BMP280;68489;50.286;9.452;2023-04-25T00:32:39;96643.25;;;7.31
79089;BMP280;68489;50.286;9.452;2023-04-25T00:35:04;96640.59;;;7.31
79089;BMP280;68489;50.286;9.452;2023-04-25T00:37:30;96637.66;;;7.29
79089;BMP280;68489;50.286;9.452;2023-04-25T00:39:57;96643.34;;;7.27
79089;BMP280;68489;50.286;9.452;2023-04-25T00:42:24;96646.44;;;7.26
79089;BMP280;68489;50.286;9.452;2023-04-25T00:44:51;96640.84;;;7.24
79089;BMP280;68489;50.286;9.452;2023-04-25T00:47:17;96638.63;;;7.22
79089;BMP280;68489;50.286;9.452;2023-04-25T00:49:42;96642.84;;;7.19
79089;BMP280;68489;50.286;9.452;2023-04-25T00:52:08;96640.19;;;7.19
79089;BMP280;68489;50.286;9.452;2023-04-25T00:54:33;96634.63;;;7.17
79089;BMP280;68489;50.286;9.452;2023-04-25T00:56:59;96632.06;;;7.14
79089;BMP280;68489;50.286;9.452;2023-04-25T00:59:26;96632.38;;;7.16
79089;BMP280;68489;50.286;9.452;2023-04-25T01:01:52;96634.63;;;7.17
79089;BMP280;68489;50.286;9.452;2023-04-25T01:04:18;96636.94;;;7.15
79089;BMP280;68489;50.286;9.452;2023-04-25T01:06:43;96627.41;;;7.18
79089;BMP280;68489;50.286;9.452;2023-04-25T01:09:09;96634.06;;;7.23
79089;BMP280;68489;50.286;9.452;2023-04-25T01:11:34;96631.63;;;7.15
79089;BMP280;68489;50.286;9.452;2023-04-25T01:14:00;96635.03;;;7.16
79089;BMP280;68489;50.286;9.452;2023-04-25T01:16:27;96633.66;;;7.11
79089;BMP280;68489;50.286;9.452;2023-04-25T01:18:53;96631.56;;;7.06
79089;BMP280;68489;50.286;9.452;2023-04-25T01:21:20;96629.00;;;7.03
79089;BMP280;68489;50.286;9.452;2023-04-25T01:23:46;96629.56;;;6.98
79089;BMP280;68489;50.286;9.452;2023-04-25T01:26:12;96629.25;;;6.95
79089;BMP280;68489;50.286;9.452;2023-04-25T01:28:38;96627.22;;;7.00
79089;BMP280;68489;50.286;9.452;2023-04-25T01:31:07;96629.88;;;7.00
79089;BMP280;68489;50.286;9.452;2023-04-25T01:33:33;96627.13;;;6.90
79089;BMP280;68489;50.286;9.452;2023-04-25T01:35:58;96627.03;;;6.94
79089;BMP280;68489;50.286;9.452;2023-04-25T01:38:23;96621.53;;;6.88
79089;BMP280;68489;50.286;9.452;2023-04-25T01:40:50;96616.38;;;6.85
79089;BMP280;68489;50.286;9.452;2023-04-25T01:43:16;96612.00;;;6.91
79089;BMP280;68489;50.286;9.452;2023-04-25T01:45:42;96615.19;;;6.86
79089;BMP280;68489;50.286;9.452;2023-04-25T01:48:08;96617.84;;;6.86
79089;BMP280;68489;50.286;9.452;2023-04-25T01:50:34;96610.53;;;6.90
79089;BMP280;68489;50.286;9.452;2023-04-25T01:53:00;96616.38;;;6.85
79089;BMP280;68489;50.286;9.452;2023-04-25T01:55:27;96624.19;;;6.88
79089;BMP280;68489;50.286;9.452;2023-04-25T01:57:52;96625.94;;;6.91
79089;BMP280;68489;50.286;9.452;2023-04-25T02:00:18;96626.19;;;6.97
79089;BMP280;68489;50.286;9.452;2023-04-25T02:02:43;96629.34;;;6.92
79089;BMP280;68489;50.286;9.452;2023-04-25T02:05:10;96622.72;;;6.87
79089;BMP280;68489;50.286;9.452;2023-04-25T02:07:35;96624.81;;;6.92
79089;BMP280;68489;50.286;9.452;2023-04-25T02:10:00;96633.81;;;6.95
79089;BMP280;68489;50.286;9.452;2023-04-25T02:12:27;96630.91;;;6.89
79089;BMP280;68489;50.286;9.452;2023-04-25T02:14:52;96628.00;;;6.87
79089;BMP280;68489;50.286;9.452;2023-04-25T02:17:17;96622.38;;;6.85
79089;BMP280;68489;50.286;9.452;2023-04-25T02:19:43;96624.38;;;6.94
79089;BMP280;68489;50.286;9.452;2023-04-25T02:22:08;96629.25;;;6.95
79089;BMP280;68489;50.286;9.452;2023-04-25T02:24:34;96621.31;;;6.95
79089;BMP280;68489;50.286;9.452;2023-04-25T02:27:00;96626.69;;;6.92
79089;BMP280;68489;50.286;9.452;2023-04-25T02:29:25;96621.09;;;6.90
79089;BMP280;68489;50.286;9.452;2023-04-25T02:31:50;96623.44;;;6.88
79089;BMP280;68489;50.286;9.452;2023-04-25T02:34:15;96619.84;;;6.82
79089;BMP280;68489;50.286;9.452;2023-04-25T02:36:41;96616.16;;;6.79
79089;BMP280;68489;50.286;9.452;2023-04-25T02:39:06;96622.38;;;6.72
79089;BMP280;68489;50.286;9.452;2023-04-25T02:41:31;96627.44;;;6.80
79089;BMP280;68489;50.286;9.452;2023-04-25T02:43:58;96628.84;;;6.71
79089;BMP280;68489;50.286;9.452;2023-04-25T02:46:23;96620.50;;;6.73
79089;BMP280;68489;50.286;9.452;2023-04-25T02:48:49;96622.59;;;6.65
79089;BMP280;68489;50.286;9.452;2023-04-25T02:51:14;96621.09;;;6.64
79089;BMP280;68489;50.286;9.452;2023-04-25T02:53:41;96627.03;;;6.68
79089;BMP280;68489;50.286;9.452;2023-04-25T02:56:07;96618.44;;;6.64
79089;BMP280;68489;50.286;9.452;2023-04-25T02:58:32;96624.78;;;6.67
79089;BMP280;68489;50.286;9.452;2023-04-25T03:00:57;96624.16;;;6.63
79089;BMP280;68489;50.286;9.452;2023-04-25T03:03:22;96621.66;;;6.59
79089;BMP280;68489;50.286;9.452;2023-04-25T03:05:49;96627.00;;;6.56
79089;BMP280;68489;50.286;9.452;2023-04-25T03:08:15;96620.06;;;6.49
79089;BMP280;68489;50.286;9.452;2023-04-25T03:10:41;96626.28;;;6.42
79089;BMP280;68489;50.286;9.452;2023-04-25T03:13:06;96623.66;;;6.42
79089;BMP280;68489;50.286;9.452;2023-04-25T03:15:31;96619.72;;;6.47
79089;BMP280;68489;50.286;9.452;2023-04-25T03:17:56;96618.88;;;6.50
79089;BMP280;68489;50.286;9.452;2023-04-25T03:20:22;96620.78;;;6.50
79089;BMP280;68489;50.286;9.452;2023-04-25T03:22:47;96615.28;;;6.44
79089;BMP280;68489;50.286;9.452;2023-04-25T03:25:12;96614.22;;;6.41
79089;BMP280;68489;50.286;9.452;2023-04-25T03:27:38;96618.88;;;6.37
79089;BMP280;68489;50.286;9.452;2023-04-25T03:30:03;96619.16;;;6.39
79089;BMP280;68489;50.286;9.452;2023-04-25T03:32:29;96621.91;;;6.36
79089;BMP280;68489;50.286;9.452;2023-04-25T03:34:54;96614.53;;;6.31
79089;BMP280;68489;50.286;9.452;2023-04-25T03:37:20;96622.66;;;6.36
79089;BMP280;68489;50.286;9.452;2023-04-25T03:39:45;96614.63;;;6.27
79089;BMP280;68489;50.286;9.452;2023-04-25T03:42:11;96618.00;;;6.28
79089;BMP280;68489;50.286;9.452;2023-04-25T03:44:36;96621.88;;;6.23
79089;BMP280;68489;50.286;9.452;2023-04-25T03:47:01;96624.94;;;6.21
79089;BMP280;68489;50.286;9.452;2023-04-25T03:49:26;96627.16;;;6.23
79089;BMP280;68489;50.286;9.452;2023-04-25T03:51:52;96627.94;;;6.23
79089;BMP280;68489;50.286;9.452;2023-04-25T03:54:17;96631.94;;;6.28
79089;BMP280;68489;50.286;9.452;2023-04-25T03:56:42;96636.25;;;6.22
79089;BMP280;68489;50.286;9.452;2023-04-25T03:59:07;96639.94;;;6.24
79089;BMP280;68489;50.286;9.452;2023-04-25T04:01:33;96645.06;;;6.32
79089;BMP280;68489;50.286;9.452;2023-04-25T04:03:58;96641.75;;;6.28
79089;BMP280;68489;50.286;9.452;2023-04-25T04:06:23;96648.72;;;6.21
79089;BMP280;68489;50.286;9.452;2023-04-25T04:08:48;96646.50;;;6.20
79089;BMP280;68489;50.286;9.452;2023-04-25T04:11:14;96645.75;;;6.19
79089;BMP280;68489;50.286;9.452;2023-04-25T04:13:39;96652.38;;;6.11
79089;BMP280;68489;50.286;9.452;2023-04-25T04:16:04;96648.38;;;6.07
79089;BMP280;68489;50.286;9.452;2023-04-25T04:18:30;96655.06;;;5.95
79089;BMP280;68489;50.286;9.452;2023-04-25T04:20:55;96659.28;;;5.92
79089;BMP280;68489;50.286;9.452;2023-04-25T04:23:23;96660.59;;;5.84
79089;BMP280;68489;50.286;9.452;2023-04-25T04:25:48;96668.94;;;5.83
79089;BMP280;68489;50.286;9.452;2023-04-25T04:28:13;96666.97;;;5.70
79089;BMP280;68489;50.286;9.452;2023-04-25T04:30:39;96682.50;;;5.68
79089;BMP280;68489;50.286;9.452;2023-04-25T04:33:04;96680.53;;;5.56
79089;BMP280;68489;50.286;9.452;2023-04-25T04:35:30;96684.97;;;5.59
79089;BMP280;68489;50.286;9.452;2023-04-25T04:37:55;96680.53;;;5.56
79089;BMP280;68489;50.286;9.452;2023-04-25T04:40:21;96685.78;;;5.56
79089;BMP280;68489;50.286;9.452;2023-04-25T04:42:47;96691.88;;;5.53
79089;BMP280;68489;50.286;9.452;2023-04-25T04:45:13;96684.72;;;5.53
79089;BMP280;68489;50.286;9.452;2023-04-25T04:47:39;96686.22;;;5.55
79089;BMP280;68489;50.286;9.452;2023-04-25T04:50:06;96692.22;;;5.55
79089;BMP280;68489;50.286;9.452;2023-04-25T04:52:34;96691.56;;;5.51
79089;BMP280;68489;50.286;9.452;2023-04-25T04:54:59;96698.66;;;5.54
79089;BMP280;68489;50.286;9.452;2023-04-25T04:57:25;96697.91;;;5.53
79089;BMP280;68489;50.286;9.452;2023-04-25T04:59:50;96691.88;;;5.53
79089;BMP280;68489;50.286;9.452;2023-04-25T05:02:16;96698.06;;;5.63
79089;BMP280;68489;50.286;9.452;2023-04-25T05:04:41;96689.25;;;5.69
79089;BMP280;68489;50.286;9.452;2023-04-25T05:07:06;96696.00;;;5.70
79089;BMP280;68489;50.286;9.452;2023-04-25T05:09:32;96705.06;;;5.69
79089;BMP280;68489;50.286;9.452;2023-04-25T05:11:57;96710.19;;;5.77
79089;BMP280;68489;50.286;9.452;2023-04-25T05:14:22;96714.63;;;5.80
79089;BMP280;68489;50.286;9.452;2023-04-25T05:16:48;96712.59;;;5.71
79089;BMP280;68489;50.286;9.452;2023-04-25T05:19:13;96714.06;;;5.72
79089;BMP280;68489;50.286;9.452;2023-04-25T05:21:39;96725.28;;;5.76
79089;BMP280;68489;50.286;9.452;2023-04-25T05:24:04;96719.34;;;5.72
79089;BMP280;68489;50.286;9.452;2023-04-25T05:26:29;96719.75;;;5.54
79089;BMP280;68489;50.286;9.452;2023-04-25T05:28:59;96722.78;;;5.52
79089;BMP280;68489;50.286;9.452;2023-04-25T05:31:25;96723.72;;;5.46
79089;BMP280;68489;50.286;9.452;2023-04-25T05:33:51;96721.31;;;5.35
79089;BMP280;68489;50.286;9.452;2023-04-25T05:36:16;96717.75;;;5.25
79089;BMP280;68489;50.286;9.452;2023-04-25T05:38:41;96727.16;;;5.26
79089;BMP280;68489;50.286;9.452;2023-04-25T05:41:06;96735.53;;;5.21
79089;BMP280;68489;50.286;9.452;2023-04-25T05:43:32;96735.13;;;5.23
79089;BMP280;68489;50.286;9.452;2023-04-25T05:45:58;96731.34;;;5.24
79089;BMP280;68489;50.286;9.452;2023-04-25T05:48:23;96737.28;;;5.28
79089;BMP280;68489;50.286;9.452;2023-04-25T05:50:48;96739.19;;;5.27
79089;BMP280;68489;50.286;9.452;2023-04-25T05:53:14;96740.41;;;5.39
79089;BMP280;68489;50.286;9.452;2023-04-25T05:55:39;96741.00;;;5.63
79089;BMP280;68489;50.286;9.452;2023-04-25T05:58:05;96735.31;;;5.81
79089;BMP280;68489;50.286;9.452;2023-04-25T06:00:31;96744.75;;;5.95
79089;BMP280;68489;50.286;9.452;2023-04-25T06:02:56;96745.31;;;6.19
79089;BMP280;68489;50.286;9.452;2023-04-25T06:05:22;96750.69;;;6.44
79089;BMP280;68489;50.286;9.452;2023-04-25T06:07:47;96746.50;;;6.47
79089;BMP280;68489;50.286;9.452;2023-04-25T06:10:12;96752.56;;;6.60
79089;BMP280;68489;50.286;9.452;2023-04-25T06:12:37;96744.22;;;6.75
79089;BMP280;68489;50.286;9.452;2023-04-25T06:15:04;96754.47;;;6.72
79089;BMP280;68489;50.286;9.452;2023-04-25T06:17:29;96754.81;;;6.75
79089;BMP280;68489;50.286;9.452;2023-04-25T06:19:55;96765.41;;;6.87
79089;BMP280;68489;50.286;9.452;2023-04-25T06:22:20;96751.44;;;6.87
79089;BMP280;68489;50.286;9.452;2023-04-25T06:24:46;96766.00;;;6.91
79089;BMP280;68489;50.286;9.452;2023-04-25T06:27:11;96758.75;;;6.95
79089;BMP280;68489;50.286;9.452;2023-04-25T06:29:36;96746.78;;;6.91
79089;BMP280;68489;50.286;9.452;2023-04-25T06:32:01;96752.66;;;6.69
79089;BMP280;68489;50.286;9.452;2023-04-25T06:34:27;96752.16;;;6.75
79089;BMP280;68489;50.286;9.452;2023-04-25T06:36:52;96750.44;;;6.68
79089;BMP280;68489;50.286;9.452;2023-04-25T06:39:17;96757.88;;;6.73
79089;BMP280;68489;50.286;9.452;2023-04-25T06:41:42;96757.72;;;6.64
79089;BMP280;68489;50.286;9.452;2023-04-25T06:44:07;96756.34;;;6.59
79089;BMP280;68489;50.286;9.452;2023-04-25T06:46:33;96761.72;;;6.56
79089;BMP280;68489;50.286;9.452;2023-04-25T06:48:58;96766.13;;;6.46
79089;BMP280;68489;50.286;9.452;2023-04-25T06:51:23;96752.41;;;6.51
79089;BMP280;68489;50.286;9.452;2023-04-25T06:53:49;96769.72;;;6.52
79089;BMP280;68489;50.286;9.452;2023-04-25T06:56:15;96771.03;;;6.60
79089;BMP280;68489;50.286;9.452;2023-04-25T06:58:41;96769.88;;;6.61
79089;BMP280;68489;50.286;9.452;2023-04-25T07:01:06;96767.03;;;6.68
79089;BMP280;68489;50.286;9.452;2023-04-25T07:03:31;96778.78;;;6.80
79089;BMP280;68489;50.286;9.452;2023-04-25T07:05:56;96778.63;;;6.87
79089;BMP280;68489;50.286;9.452;2023-04-25T07:08:22;96777.00;;;6.90
79089;BMP280;68489;50.286;9.452;2023-04-25T07:10:47;96775.09;;;7.03
79089;BMP280;68489;50.286;9.452;2023-04-25T07:13:12;96770.59;;;7.16
79089;BMP280;68489;50.286;9.452;2023-04-25T07:15:37;96772.50;;;7.29
79089;BMP280;68489;50.286;9.452;2023-04-25T07:18:03;96767.44;;;7.34
79089;BMP280;68489;50.286;9.452;2023-04-25T07:20:28;96767.63;;;7.40
79089;BMP280;68489;50.286;9.452;2023-04-25T07:22:53;96764.56;;;7.54
79089;BMP280;68489;50.286;9.452;2023-04-25T07:25:19;96777.53;;;7.74
79089;BMP280;68489;50.286;9.452;2023-04-25T07:27:45;96782.09;;;7.86
79089;BMP280;68489;50.286;9.452;2023-04-25T07:30:10;96779.22;;;7.94
79089;BMP280;68489;50.286;9.452;2023-04-25T07:32:35;96781.50;;;8.04
79089;BMP280;68489;50.286;9.452;2023-04-25T07:35:01;96778.19;;;8.13
79089;BMP280;68489;50.286;9.452;2023-04-25T07:37:27;96788.53;;;8.20
79089;BMP280;68489;50.286;9.452;2023-04-25T07:39:52;96783.56;;;8.44
79089;BMP280;68489;50.286;9.452;2023-04-25T07:42:17;96785.06;;;8.45
79089;BMP280;68489;50.286;9.452;2023-04-25T07:44:42;96794.84;;;8.57
79089;BMP280;68489;50.286;9.452;2023-04-25T07:47:09;96795.66;;;8.98
79089;BMP280;68489;50.286;9.452;2023-04-25T07:49:35;96802.06;;;9.59
79089;BMP280;68489;50.286;9.452;2023-04-25T07:52:01;96800.34;;;9.75
79089;BMP280;68489;50.286;9.452;2023-04-25T07:54:27;96810.19;;;9.74
79089;BMP280;68489;50.286;9.452;2023-04-25T07:56:52;96812.28;;;9.61
79089;BMP280;68489;50.286;9.452;2023-04-25T07:59:18;96814.75;;;9.64
79089;BMP280;68489;50.286;9.452;2023-04-25T08:01:43;96808.53;;;9.49
79089;BMP280;68489;50.286;9.452;2023-04-25T08:04:08;96822.13;;;9.60
79089;BMP280;68489;50.286;9.452;2023-04-25T08:06:33;96816.22;;;9.56
79089;BMP280;68489;50.286;9.452;2023-04-25T08:08:59;96817.59;;;9.70
79089;BMP280;68489;50.286;9.452;2023-04-25T08:11:24;96814.66;;;9.86
79089;BMP280;68489;50.286;9.452;2023-04-25T08:13:50;96818.66;;;10.00
79089;BMP280;68489;50.286;9.452;2023-04-25T08:16:15;96820.75;;;10.24
79089;BMP280;68489;50.286;9.452;2023-04-25T08:18:40;96823.53;;;10.48
79089;BMP280;68489;50.286;9.452;2023-04-25T08:21:06;96836.34;;;10.68
79089;BMP280;68489;50.286;9.452;2023-04-25T08:23:33;96827.84;;;11.06
79089;BMP280;68489;50.286;9.452;2023-04-25T08:25:58;96829.38;;;10.88
79089;BMP280;68489;50.286;9.452;2023-04-25T08:28:24;96833.84;;;10.82
79089;BMP280;68489;50.286;9.452;2023-04-25T08:30:49;96832.06;;;10.61
79089;BMP280;68489;50.286;9.452;2023-04-25T08:33:14;96838.03;;;10.47
79089;BMP280;68489;50.286;9.452;2023-04-25T08:35:40;96844.38;;;10.49
79089;BMP280;68489;50.286;9.452;2023-04-25T08:38:05;96849.38;;;10.47
79089;BMP280;68489;50.286;9.452;2023-04-25T08:40:35;96853.81;;;10.41
79089;BMP280;68489;50.286;9.452;2023-04-25T08:43:03;96848.34;;;10.45
79089;BMP280;68489;50.286;9.452;2023-04-25T08:45:31;96853.94;;;10.74
79089;BMP280;68489;50.286;9.452;2023-04-25T08:47:57;96856.28;;;10.72
79089;BMP280;68489;50.286;9.452;2023-04-25T08:50:23;96855.25;;;10.51
79089;BMP280;68489;50.286;9.452;2023-04-25T08:52:49;96850.56;;;10.46
79089;BMP280;68489;50.286;9.452;2023-04-25T08:55:18;96853.06;;;10.31
79089;BMP280;68489;50.286;9.452;2023-04-25T08:57:44;96857.94;;;10.15
79089;BMP280;68489;50.286;9.452;2023-04-25T09:00:11;96864.41;;;10.04
79089;BMP280;68489;50.286;9.452;2023-04-25T09:02:38;96866.94;;;10.08
79089;BMP280;68489;50.286;9.452;2023-04-25T09:05:05;96864.72;;;10.06
79089;BMP280;68489;50.286;9.452;2023-04-25T09:07:32;96867.84;;;10.42
79089;BMP280;68489;50.286;9.452;2023-04-25T09:09:58;96865.19;;;11.54
79089;BMP280;68489;50.286;9.452;2023-04-25T09:12:26;96865.59;;;11.85
79089;BMP280;68489;50.286;9.452;2023-04-25T09:15:05;96868.78;;;12.37
79089;BMP280;68489;50.286;9.452;2023-04-25T09:17:31;96877.72;;;12.49
79089;BMP280;68489;50.286;9.452;2023-04-25T09:20:14;96872.94;;;12.53
79089;BMP280;68489;50.286;9.452;2023-04-25T09:22:40;96877.16;;;12.45
79089;BMP280;68489;50.286;9.452;2023-04-25T09:25:12;96879.47;;;12.67
79089;BMP280;68489;50.286;9.452;2023-04-25T09:27:52;96874.63;;;12.80
79089;BMP280;68489;50.286;9.452;2023-04-25T09:30:18;96873.63;;;13.28
79089;BMP280;68489;50.286;9.452;2023-04-25T09:32:43;96872.31;;;14.40
79089;BMP280;68489;50.286;9.452;2023-04-25T09:35:09;96869.81;;;15.26
79089;BMP280;68489;50.286;9.452;2023-04-25T09:37:36;96884.16;;;15.22
79089;BMP280;68489;50.286;9.452;2023-04-25T09:40:06;96887.72;;;15.51
79089;BMP280;68489;50.286;9.452;2023-04-25T09:42:32;96883.53;;;15.44
79089;BMP280;68489;50.286;9.452;2023-04-25T09:45:00;96893.66;;;14.92
79089;BMP280;68489;50.286;9.452;2023-04-25T09:47:29;96885.41;;;14.12
79089;BMP280;68489;50.286;9.452;2023-04-25T09:49:54;96893.38;;;13.51
79089;BMP280;68489;50.286;9.452;2023-04-25T09:52:24;96890.13;;;12.97
79089;BMP280;68489;50.286;9.452;2023-04-25T09:54:50;96895.28;;;12.41
79089;BMP280;68489;50.286;9.452;2023-04-25T09:57:17;96899.22;;;11.83
79089;BMP280;68489;50.286;9.452;2023-04-25T09:59:45;96897.19;;;11.45
79089;BMP280;68489;50.286;9.452;2023-04-25T10:02:12;96903.81;;;11.07
79089;BMP280;68489;50.286;9.452;2023-04-25T10:04:38;96904.59;;;10.80
79089;BMP280;68489;50.286;9.452;2023-04-25T10:07:05;96903.41;;;10.44
79089;BMP280;68489;50.286;9.452;2023-04-25T10:09:32;96908.59;;;10.66
79089;BMP280;68489;50.286;9.452;2023-04-25T10:12:01;96908.41;;;10.79
79089;BMP280;68489;50.286;9.452;2023-04-25T10:14:29;96909.34;;;10.57
79089;BMP280;68489;50.286;9.452;2023-04-25T10:16:55;96917.88;;;10.61
79089;BMP280;68489;50.286;9.452;2023-04-25T10:19:21;96919.81;;;10.61
79089;BMP280;68489;50.286;9.452;2023-04-25T10:22:02;96919.06;;;10.60
79089;BMP280;68489;50.286;9.452;2023-04-25T10:24:28;96921.28;;;10.53
79089;BMP280;68489;50.286;9.452;2023-04-25T10:26:53;96928.06;;;10.45
79089;BMP280;68489;50.286;9.452;2023-04-25T10:29:26;96933.09;;;10.33
79089;BMP280;68489;50.286;9.452;2023-04-25T10:31:51;96931.44;;;10.27
79089;BMP280;68489;50.286;9.452;2023-04-25T10:34:17;96930.53;;;10.21
79089;BMP280;68489;50.286;9.452;2023-04-25T10:36:49;96932.13;;;10.09
79089;BMP280;68489;50.286;9.452;2023-04-25T10:39:21;96936.41;;;9.97
79089;BMP280;68489;50.286;9.452;2023-04-25T10:41:52;96936.41;;;9.97
79089;BMP280;68489;50.286;9.452;2023-04-25T10:44:17;96932.59;;;10.07
79089;BMP280;68489;50.286;9.452;2023-04-25T10:46:45;96939.56;;;10.14
79089;BMP280;68489;50.286;9.452;2023-04-25T10:49:28;96943.59;;;10.46
79089;BMP280;68489;50.286;9.452;2023-04-25T10:54:55;96946.69;;;10.45
79089;BMP280;68489;50.286;9.452;2023-04-25T10:57:39;96951.94;;;10.08
79089;BMP280;68489;50.286;9.452;2023-04-25T11:00:09;96950.25;;;9.92
79089;BMP280;68489;50.286;9.452;2023-04-25T11:02:45;96955.66;;;9.79
79089;BMP280;68489;50.286;9.452;2023-04-25T11:05:26;96956.06;;;9.69
79089;BMP280;68489;50.286;9.452;2023-04-25T11:07:55;96962.91;;;9.26
79089;BMP280;68489;50.286;9.452;2023-04-25T11:10:26;96960.78;;;8.99
79089;BMP280;68489;50.286;9.452;2023-04-25T11:12:52;96961.28;;;8.84
79089;BMP280;68489;50.286;9.452;2023-04-25T11:15:17;96976.13;;;8.82
79089;BMP280;68489;50.286;9.452;2023-04-25T11:17:42;96974.88;;;8.74
79089;BMP280;68489;50.286;9.452;2023-04-25T11:20:11;96978.38;;;8.83
79089;BMP280;68489;50.286;9.452;2023-04-25T11:22:38;96978.84;;;8.91
79089;BMP280;68489;50.286;9.452;2023-04-25T11:25:09;96977.22;;;9.06
79089;BMP280;68489;50.286;9.452;2023-04-25T11:27:51;96982.22;;;9.04
79089;BMP280;68489;50.286;9.452;2023-04-25T11:30:18;96981.91;;;9.24
79089;BMP280;68489;50.286;9.452;2023-04-25T11:32:43;96981.53;;;9.35
79089;BMP280;68489;50.286;9.452;2023-04-25T11:35:09;96978.69;;;9.51
79089;BMP280;68489;50.286;9.452;2023-04-25T11:37:35;96984.84;;;9.48
79089;BMP280;68489;50.286;9.452;2023-04-25T11:40:02;96976.69;;;9.33
79089;BMP280;68489;50.286;9.452;2023-04-25T11:42:27;96972.53;;;9.32
79089;BMP280;68489;50.286;9.452;2023-04-25T11:44:53;96981.47;;;9.48
79089;BMP280;68489;50.286;9.452;2023-04-25T11:47:18;96978.81;;;9.79
79089;BMP280;68489;50.286;9.452;2023-04-25T11:49:43;96981.72;;;10.03
79089;BMP280;68489;50.286;9.452;2023-04-25T11:52:08;96978.00;;;10.50
79089;BMP280;68489;50.286;9.452;2023-04-25T11:54:37;96986.13;;;10.92
79089;BMP280;68489;50.286;9.452;2023-04-25T11:57:03;96985.06;;;11.35
79089;BMP280;68489;50.286;9.452;2023-04-25T11:59:28;96983.69;;;11.49
79089;BMP280;68489;50.286;9.452;2023-04-25T12:01:54;96996.06;;;11.61
79089;BMP280;68489;50.286;9.452;2023-04-25T12:04:24;96994.22;;;11.25
79089;BMP280;68489;50.286;9.452;2023-04-25T12:06:52;96997.66;;;10.98
79089;BMP280;68489;50.286;9.452;2023-04-25T12:09:19;97004.16;;;10.70
79089;BMP280;68489;50.286;9.452;2023-04-25T12:12:04;96999.34;;;10.28
79089;BMP280;68489;50.286;9.452;2023-04-25T12:14:35;96999.69;;;10.39
79089;BMP280;68489;50.286;9.452;2023-04-25T12:17:02;97001.66;;;10.75
79089;BMP280;68489;50.286;9.452;2023-04-25T12:19:33;97006.66;;;11.37
79089;BMP280;68489;50.286;9.452;2023-04-25T12:22:00;97009.59;;;11.91
79089;BMP280;68489;50.286;9.452;2023-04-25T12:24:26;97010.13;;;12.28
79089;BMP280;68489;50.286;9.452;2023-04-25T12:27:05;97014.63;;;11.98
79089;BMP280;68489;50.286;9.452;2023-04-25T12:29:32;97011.47;;;11.57
79089;BMP280;68489;50.286;9.452;2023-04-25T12:31:57;97009.16;;;11.41
79089;BMP280;68489;50.286;9.452;2023-04-25T12:34:23;97010.06;;;11.01
79089;BMP280;68489;50.286;9.452;2023-04-25T12:36:50;97012.13;;;10.70
79089;BMP280;68489;50.286;9.452;2023-04-25T12:39:20;97014.75;;;10.51
79089;BMP280;68489;50.286;9.452;2023-04-25T12:41:47;97020.00;;;10.24
79089;BMP280;68489;50.286;9.452;2023-04-25T12:44:13;97022.53;;;10.27
79089;BMP280;68489;50.286;9.452;2023-04-25T12:46:39;97018.41;;;10.35
79089;BMP280;68489;50.286;9.452;2023-04-25T12:49:05;97019.50;;;10.47
79089;BMP280;68489;50.286;9.452;2023-04-25T12:51:32;97011.09;;;10.67
79089;BMP280;68489;50.286;9.452;2023-04-25T12:53:59;97016.13;;;10.65
79089;BMP280;68489;50.286;9.452;2023-04-25T12:56:25;97023.66;;;10.57
79089;BMP280;68489;50.286;9.452;2023-04-25T12:58:51;97017.00;;;10.62
79089;BMP280;68489;50.286;9.452;2023-04-25T13:01:17;97021.16;;;10.72
79089;BMP280;68489;50.286;9.452;2023-04-25T13:03:42;97020.88;;;10.98
79089;BMP280;68489;50.286;9.452;2023-04-25T13:06:07;97022.78;;;11.25
79089;BMP280;68489;50.286;9.452;2023-04-25T13:08:33;97021.47;;;11.29
79089;BMP280;68489;50.286;9.452;2023-04-25T13:10:58;97026.31;;;11.31
79089;BMP280;68489;50.286;9.452;2023-04-25T13:13:23;97020.72;;;11.10
79089;BMP280;68489;50.286;9.452;2023-04-25T13:15:48;97024.25;;;11.07
79089;BMP280;68489;50.286;9.452;2023-04-25T13:18:14;97029.00;;;10.85
79089;BMP280;68489;50.286;9.452;2023-04-25T13:20:40;97033.34;;;10.51
79089;BMP280;68489;50.286;9.452;2023-04-25T13:23:05;97029.81;;;10.45
79089;BMP280;68489;50.286;9.452;2023-04-25T13:25:30;97029.97;;;10.60
79089;BMP280;68489;50.286;9.452;2023-04-25T13:27:55;97032.66;;;10.78
79089;BMP280;68489;50.286;9.452;2023-04-25T13:30:21;97035.03;;;11.04
79089;BMP280;68489;50.286;9.452;2023-04-25T13:32:46;97036.59;;;11.56
79089;BMP280;68489;50.286;9.452;2023-04-25T13:35:12;97032.06;;;13.10
79089;BMP280;68489;50.286;9.452;2023-04-25T13:37:39;97028.47;;;13.87
79089;BMP280;68489;50.286;9.452;2023-04-25T13:40:07;97044.69;;;13.68
79089;BMP280;68489;50.286;9.452;2023-04-25T13:42:34;97035.78;;;13.42
79089;BMP280;68489;50.286;9.452;2023-04-25T13:45:00;97039.31;;;12.95
79089;BMP280;68489;50.286;9.452;2023-04-25T13:47:26;97041.00;;;12.44
79089;BMP280;68489;50.286;9.452;2023-04-25T13:49:51;97043.34;;;12.27
79089;BMP280;68489;50.286;9.452;2023-04-25T13:52:16;97039.19;;;11.93
79089;BMP280;68489;50.286;9.452;2023-04-25T13:54:42;97050.66;;;11.66
79089;BMP280;68489;50.286;9.452;2023-04-25T13:57:07;97048.31;;;11.68
79089;BMP280;68489;50.286;9.452;2023-04-25T13:59:32;97044.28;;;11.73
79089;BMP280;68489;50.286;9.452;2023-04-25T14:01:58;97055.88;;;11.60
79089;BMP280;68489;50.286;9.452;2023-04-25T14:04:23;97055.81;;;11.70
79089;BMP280;68489;50.286;9.452;2023-04-25T14:06:48;97063.13;;;11.60
79089;BMP280;68489;50.286;9.452;2023-04-25T14:09:14;97059.13;;;11.46
79089;BMP280;68489;50.286;9.452;2023-04-25T14:11:40;97062.63;;;11.71
79089;BMP280;68489;50.286;9.452;2023-04-25T14:14:05;97051.50;;;11.91